Atalandi — SVBA — position and weather

sailwx.info

Track history (hours):
 
Tides and Currents Weather Stations Pressure Air Temp Water Temp Dewpoint Dewpoint Depression Visibility Wind Speed Wind Dir Waves Ship Positions

Atalandi

Last reported at 2015-Mar-21 17:22 UTC. Time now 2015-Mar-31 16:53 UTC.
Position N 54°08' E 004°39'.
Warning: this ship's position is 9 days out of date.

Length 248 m; draft 8.5 m.

Type: Tanker. MMSI: 240269000.

Date/timePositionNaut miles runAvg speedWind from/ knotsBaromVisibWave heightAir tempDewpointWater temp
2015-Mar-21 17:22N 54°08' E 004°39'1012.0
2015-Mar-21 16:30N 53°57' E 004°38'15712.0
2015-Mar-21 03:23N 51°42' E 002°28'1315.9
2015-Mar-21 02:34N 51°31' E 002°15'1515.2
2015-Mar-21 01:33N 51°17' E 002°07'1716.8
2015-Mar-21 00:33N 51°07' E 001°45'1817.5
2015-Mar-20 23:33N 50°55' E 001°25'3514.7
2015-Mar-20 21:09N 50°30' E 000°46'1116.3
2015-Mar-20 20:31N 50°27' E 000°30'4514.6
2015-Mar-20 17:26N 50°26' W 000°41'1214.0
2015-Mar-20 16:33N 50°35' W 000°53'1110.6
2015-Mar-20 15:34N 50°44' W 001°03'1010.4
2015-Mar-20 14:33N 50°48' W 001°17'2 2.2
2015-Mar-20 13:33N 50°50' W 001°19'0 0.0
2015-Mar-20 11:27N 50°50' W 001°19'0 0.0
2015-Mar-20 09:27N 50°50' W 001°19'0 0.0
2015-Mar-20 08:09N 50°50' W 001°19'0 0.0
2015-Mar-20 07:33N 50°50' W 001°19'0 0.0
2015-Mar-20 01:15N 50°50' W 001°19'0 0.0
2015-Mar-19 20:33N 50°50' W 001°19'0 0.0
2015-Mar-19 18:21N 50°50' W 001°19'0 0.0
2015-Mar-19 16:33N 50°50' W 001°19'0 0.0
2015-Mar-19 15:21N 50°50' W 001°19'0 0.0
2015-Mar-19 13:33N 50°50' W 001°19'0 0.0
2015-Mar-19 12:27N 50°50' W 001°19'0 0.0
2015-Mar-19 10:15N 50°50' W 001°19'0 0.0
2015-Mar-19 09:33N 50°50' W 001°19'0 0.0
2015-Mar-19 04:21N 50°50' W 001°19'0 0.0
2015-Mar-19 03:27N 50°50' W 001°19'0 0.0
2015-Mar-19 02:03N 50°50' W 001°19'0 0.0
2015-Mar-19 01:15N 50°50' W 001°19'0 0.0
2015-Mar-19 00:33N 50°50' W 001°19'0 0.0
2015-Mar-18 23:27N 50°50' W 001°19'0 0.0
2015-Mar-18 22:33N 50°50' W 001°19'0 0.0
2015-Mar-18 19:33N 50°50' W 001°19'0 0.0
2015-Mar-18 18:33N 50°50' W 001°19'0 0.0
2015-Mar-18 16:27N 50°50' W 001°19'0 0.0
2015-Mar-18 14:33N 50°50' W 001°19'0 0.0
2015-Mar-18 13:27N 50°50' W 001°19'0 0.0
2015-Mar-18 12:21N 50°50' W 001°19'0 0.0
2015-Mar-18 11:33N 50°50' W 001°19'1 0.7
2015-Mar-18 10:33N 50°50' W 001°19'6 5.6
2015-Mar-18 09:33N 50°46' W 001°12'1010.0
2015-Mar-18 08:33N 50°42' W 000°57'7 7.0
2015-Mar-18 07:33N 50°35' W 000°58'2 2.2
2015-Mar-18 06:32N 50°35' W 001°02'0 0.0
2015-Mar-18 05:29N 50°35' W 001°02'0 0.0
2015-Mar-18 04:29N 50°35' W 001°02'0 0.1
2015-Mar-18 03:32N 50°35' W 001°02'0 0.3
2015-Mar-18 02:32N 50°35' W 001°02'0 0.0
2015-Mar-18 01:29N 50°35' W 001°02'0 0.0
2015-Mar-18 00:32N 50°35' W 001°02'0 0.0
2015-Mar-17 23:32N 50°35' W 001°02'0 0.0
2015-Mar-17 22:32N 50°35' W 001°02'0 0.1
2015-Mar-17 21:32N 50°35' W 001°02'0 0.3
2015-Mar-17 20:32N 50°34' W 001°02'0 0.1
2015-Mar-17 19:32N 50°35' W 001°02'0 0.0
2015-Mar-17 18:32N 50°35' W 001°02'0 0.0
2015-Mar-17 17:32N 50°35' W 001°02'0 0.0
2015-Mar-17 16:32N 50°35' W 001°02'0 0.0
2015-Mar-17 15:32N 50°35' W 001°02'0 0.3
2015-Mar-17 14:32N 50°35' W 001°02'0 0.2
2015-Mar-17 13:33N 50°35' W 001°02'5 4.9
2015-Mar-17 12:33N 50°35' W 000°54'1514.7
2015-Mar-17 11:31N 50°30' W 000°31'1614.8
2015-Mar-17 10:26N 50°31' W 000°06'1314.5
2015-Mar-17 09:33N 50°34' E 000°13'1413.7
2015-Mar-17 08:33N 50°37' E 000°34'1312.9
2015-Mar-17 07:33N 50°44' E 000°51'1312.7
2015-Mar-17 06:33N 50°52' E 001°07'1413.5
2015-Mar-17 05:33N 51°02' E 001°22'1515.4
2015-Mar-17 04:34N 51°11' E 001°42'1514.8
2015-Mar-17 03:33N 51°24' E 001°54'1414.0
2015-Mar-17 02:33N 51°34' E 002°09'1313.4
2015-Mar-17 01:34N 51°45' E 002°22'1412.8
2015-Mar-17 00:29N 51°56' E 002°36'1512.2
2015-Mar-16 23:18N 52°10' E 002°41'1312.0
2015-Mar-16 22:12N 52°23' E 002°47'61012.9
2015-Mar-14 23:05N 62°31' E 003°60'  
Track history (hours):
 
Tides and Currents Weather Stations Pressure Air Temp Water Temp Dewpoint Dewpoint Depression Visibility Wind Speed Wind Dir Waves Ship Positions

Atalandi

Last reported at 2015-Mar-21 17:22 UTC. Time now 2015-Mar-31 16:53 UTC.
Position N 54°08' E 004°39'.
Warning: this ship's position is 9 days out of date.

Length 248 m; draft 8.5 m.

Type: Tanker. MMSI: 240269000.

Date/timePositionNaut miles runAvg speedWind from/ knotsBaromVisibWave heightAir tempDewpointWater temp
2015-Mar-21 17:22N 54°08' E 004°39'1012.0
2015-Mar-21 16:30N 53°57' E 004°38'15712.0
2015-Mar-21 03:23N 51°42' E 002°28'1315.9
2015-Mar-21 02:34N 51°31' E 002°15'1515.2
2015-Mar-21 01:33N 51°17' E 002°07'1716.8
2015-Mar-21 00:33N 51°07' E 001°45'1817.5
2015-Mar-20 23:33N 50°55' E 001°25'3514.7
2015-Mar-20 21:09N 50°30' E 000°46'1116.3
2015-Mar-20 20:31N 50°27' E 000°30'4514.6
2015-Mar-20 17:26N 50°26' W 000°41'1214.0
2015-Mar-20 16:33N 50°35' W 000°53'1110.6
2015-Mar-20 15:34N 50°44' W 001°03'1010.4
2015-Mar-20 14:33N 50°48' W 001°17'2 2.2
2015-Mar-20 13:33N 50°50' W 001°19'0 0.0
2015-Mar-20 11:27N 50°50' W 001°19'0 0.0
2015-Mar-20 09:27N 50°50' W 001°19'0 0.0
2015-Mar-20 08:09N 50°50' W 001°19'0 0.0
2015-Mar-20 07:33N 50°50' W 001°19'0 0.0
2015-Mar-20 01:15N 50°50' W 001°19'0 0.0
2015-Mar-19 20:33N 50°50' W 001°19'0 0.0
2015-Mar-19 18:21N 50°50' W 001°19'0 0.0
2015-Mar-19 16:33N 50°50' W 001°19'0 0.0
2015-Mar-19 15:21N 50°50' W 001°19'0 0.0
2015-Mar-19 13:33N 50°50' W 001°19'0 0.0
2015-Mar-19 12:27N 50°50' W 001°19'0 0.0
2015-Mar-19 10:15N 50°50' W 001°19'0 0.0
2015-Mar-19 09:33N 50°50' W 001°19'0 0.0
2015-Mar-19 04:21N 50°50' W 001°19'0 0.0
2015-Mar-19 03:27N 50°50' W 001°19'0 0.0
2015-Mar-19 02:03N 50°50' W 001°19'0 0.0
2015-Mar-19 01:15N 50°50' W 001°19'0 0.0
2015-Mar-19 00:33N 50°50' W 001°19'0 0.0
2015-Mar-18 23:27N 50°50' W 001°19'0 0.0
2015-Mar-18 22:33N 50°50' W 001°19'0 0.0
2015-Mar-18 19:33N 50°50' W 001°19'0 0.0
2015-Mar-18 18:33N 50°50' W 001°19'0 0.0
2015-Mar-18 16:27N 50°50' W 001°19'0 0.0
2015-Mar-18 14:33N 50°50' W 001°19'0 0.0
2015-Mar-18 13:27N 50°50' W 001°19'0 0.0
2015-Mar-18 12:21N 50°50' W 001°19'0 0.0
2015-Mar-18 11:33N 50°50' W 001°19'1 0.7
2015-Mar-18 10:33N 50°50' W 001°19'6 5.6
2015-Mar-18 09:33N 50°46' W 001°12'1010.0
2015-Mar-18 08:33N 50°42' W 000°57'7 7.0
2015-Mar-18 07:33N 50°35' W 000°58'2 2.2
2015-Mar-18 06:32N 50°35' W 001°02'0 0.0
2015-Mar-18 05:29N 50°35' W 001°02'0 0.0
2015-Mar-18 04:29N 50°35' W 001°02'0 0.1
2015-Mar-18 03:32N 50°35' W 001°02'0 0.3
2015-Mar-18 02:32N 50°35' W 001°02'0 0.0
2015-Mar-18 01:29N 50°35' W 001°02'0 0.0
2015-Mar-18 00:32N 50°35' W 001°02'0 0.0
2015-Mar-17 23:32N 50°35' W 001°02'0 0.0
2015-Mar-17 22:32N 50°35' W 001°02'0 0.1
2015-Mar-17 21:32N 50°35' W 001°02'0 0.3
2015-Mar-17 20:32N 50°34' W 001°02'0 0.1
2015-Mar-17 19:32N 50°35' W 001°02'0 0.0
2015-Mar-17 18:32N 50°35' W 001°02'0 0.0
2015-Mar-17 17:32N 50°35' W 001°02'0 0.0
2015-Mar-17 16:32N 50°35' W 001°02'0 0.0
2015-Mar-17 15:32N 50°35' W 001°02'0 0.3
2015-Mar-17 14:32N 50°35' W 001°02'0 0.2
2015-Mar-17 13:33N 50°35' W 001°02'5 4.9
2015-Mar-17 12:33N 50°35' W 000°54'1514.7
2015-Mar-17 11:31N 50°30' W 000°31'1614.8
2015-Mar-17 10:26N 50°31' W 000°06'1314.5
2015-Mar-17 09:33N 50°34' E 000°13'1413.7
2015-Mar-17 08:33N 50°37' E 000°34'1312.9
2015-Mar-17 07:33N 50°44' E 000°51'1312.7
2015-Mar-17 06:33N 50°52' E 001°07'1413.5
2015-Mar-17 05:33N 51°02' E 001°22'1515.4
2015-Mar-17 04:34N 51°11' E 001°42'1514.8
2015-Mar-17 03:33N 51°24' E 001°54'1414.0
2015-Mar-17 02:33N 51°34' E 002°09'1313.4
2015-Mar-17 01:34N 51°45' E 002°22'1412.8
2015-Mar-17 00:29N 51°56' E 002°36'1512.2
2015-Mar-16 23:18N 52°10' E 002°41'1312.0
2015-Mar-16 22:12N 52°23' E 002°47'61012.9
2015-Mar-14 23:05N 62°31' E 003°60'  

Dump ship's entire track history